Time;durP1;ratioP1;P1;durP2;ratioP2;P2;SDS_P1;SDS_P2;PMS_P1;PMS_P2;Temp;Humidity;BMP_temperature;BMP_pressure;BME280_temperature;BME280_humidity;BME280_pressure;Samples;Min_cycle;Max_cycle;Signal;HPM_P1;HPM_P2
2023/04/29 00:01:13;;;;;;;20.38;14.27;;;10.50;99.90;;;;;;5095269;28;20048;-62
2023/04/29 00:03:39;;;;;;;20.58;13.52;;;10.50;99.90;;;;;;5100293;28;20475;-64
2023/04/29 00:06:06;;;;;;;20.58;14.05;;;10.50;99.90;;;;;;5106349;28;20131;-63
2023/04/29 00:08:33;;;;;;;17.65;12.65;;;10.50;99.90;;;;;;5088738;28;20073;-64
2023/04/29 00:11:00;;;;;;;19.50;13.10;;;10.50;99.90;;;;;;5081102;28;20451;-64
2023/04/29 00:13:27;;;;;;;20.75;14.07;;;10.50;99.90;;;;;;5107685;28;20043;-64
2023/04/29 00:15:53;;;;;;;22.83;13.52;;;10.50;99.90;;;;;;5107428;28;20177;-62
2023/04/29 00:18:20;;;;;;;17.65;12.50;;;10.50;99.90;;;;;;5108209;28;20097;-63
2023/04/29 00:20:47;;;;;;;22.65;14.80;;;10.40;99.90;;;;;;5107643;28;20153;-62
2023/04/29 00:23:14;;;;;;;18.85;12.88;;;10.30;99.90;;;;;;5108535;28;20502;-62
2023/04/29 00:25:40;;;;;;;18.65;13.27;;;10.30;99.90;;;;;;5090866;28;20039;-62
2023/04/29 00:28:07;;;;;;;18.23;14.07;;;10.20;99.90;;;;;;5112376;28;20050;-62
2023/04/29 00:30:34;;;;;;;21.95;14.68;;;10.20;99.90;;;;;;5077496;28;20546;-63
2023/04/29 00:33:01;;;;;;;19.77;13.60;;;10.20;99.90;;;;;;5094249;28;20127;-62
2023/04/29 00:35:28;;;;;;;19.70;14.32;;;10.20;99.90;;;;;;5112005;28;20067;-62
2023/04/29 00:37:54;;;;;;;24.60;15.00;;;10.10;99.90;;;;;;5085207;28;20052;-62
2023/04/29 00:40:21;;;;;;;22.70;13.35;;;10.10;99.90;;;;;;5103286;28;20128;-62
2023/04/29 00:42:48;;;;;;;23.13;14.68;;;10.10;99.90;;;;;;5112171;28;20478;-62
2023/04/29 00:45:15;;;;;;;20.25;13.77;;;10.10;99.90;;;;;;5094086;28;20067;-63
2023/04/29 00:47:41;;;;;;;19.15;14.02;;;10.10;99.90;;;;;;5109073;28;20050;-63
2023/04/29 00:50:08;;;;;;;23.45;14.27;;;10.10;99.90;;;;;;5094116;28;20043;-63
2023/04/29 00:52:36;;;;;;;25.17;14.30;;;10.00;99.90;;;;;;5111988;28;20075;-62
2023/04/29 00:55:03;;;;;;;21.10;14.23;;;10.00;99.90;;;;;;5093898;28;20126;-61
2023/04/29 00:57:30;;;;;;;20.38;13.75;;;9.80;99.90;;;;;;5093507;28;20056;-63
2023/04/29 00:59:58;;;;;;;20.60;13.05;;;9.80;99.90;;;;;;5094073;28;20051;-62
2023/04/29 01:02:25;;;;;;;19.20;13.43;;;9.70;99.90;;;;;;5111998;28;20122;-62
2023/04/29 01:04:52;;;;;;;21.95;14.32;;;9.70;99.90;;;;;;5111720;28;20048;-62
2023/04/29 01:07:30;;;;;;;18.77;13.80;;;9.70;99.90;;;;;;5111915;28;20071;-62
2023/04/29 01:10:03;;;;;;;21.73;14.02;;;9.70;99.90;;;;;;5091152;28;20086;-61
2023/04/29 01:12:35;;;;;;;20.23;13.40;;;9.60;99.90;;;;;;5104284;28;20127;-62
2023/04/29 01:15:06;;;;;;;18.75;13.63;;;9.60;99.90;;;;;;5093635;28;20047;-62
2023/04/29 01:17:38;;;;;;;19.70;13.55;;;9.60;99.90;;;;;;5093962;28;20058;-63
2023/04/29 01:20:05;;;;;;;20.80;13.30;;;9.60;99.90;;;;;;5060969;28;20059;-62
2023/04/29 01:22:32;;;;;;;22.80;14.60;;;9.60;99.90;;;;;;5093841;28;20058;-62
2023/04/29 01:24:59;;;;;;;18.40;12.40;;;9.60;99.90;;;;;;4754328;28;10000452;-63
2023/04/29 01:27:31;;;;;;;17.92;13.05;;;9.50;99.90;;;;;;5108048;28;20074;-63
2023/04/29 01:30:42;;;;;;;17.95;13.70;;;9.50;99.90;;;;;;5093712;28;20051;-63
2023/04/29 01:33:39;;;;;;;19.60;13.63;;;9.50;99.90;;;;;;5016134;28;20523;-63
2023/04/29 01:36:21;;;;;;;19.90;13.38;;;9.40;99.90;;;;;;5031834;28;20053;-62
2023/04/29 01:39:12;;;;;;;19.83;13.48;;;9.40;99.90;;;;;;5095722;28;20122;-62
2023/04/29 01:41:51;;;;;;;19.30;12.93;;;9.30;99.90;;;;;;5093929;28;20052;-62
2023/04/29 01:44:24;;;;;;;16.52;11.77;;;9.20;99.90;;;;;;5093201;28;20055;-61
2023/04/29 01:46:52;;;;;;;19.58;12.32;;;9.20;99.90;;;;;;5105445;28;20062;-61
2023/04/29 01:49:26;;;;;;;18.02;13.27;;;9.10;99.90;;;;;;5090861;28;20067;-63
2023/04/29 01:51:53;;;;;;;20.65;13.57;;;9.10;99.90;;;;;;5111741;28;20048;-63
2023/04/29 01:54:21;;;;;;;18.05;12.55;;;9.10;99.90;;;;;;5094366;28;20048;-63
2023/04/29 01:56:48;;;;;;;18.70;12.30;;;9.10;99.90;;;;;;5093246;28;20473;-61
2023/04/29 01:59:15;;;;;;;18.40;13.48;;;9.00;99.90;;;;;;5115637;28;20364;-62
2023/04/29 02:01:41;;;;;;;19.67;14.68;;;9.00;99.90;;;;;;5115014;28;20074;-62
2023/04/29 02:04:08;;;;;;;20.02;13.88;;;9.00;99.90;;;;;;5097178;28;20078;-63
2023/04/29 02:06:35;;;;;;;16.55;11.65;;;9.00;99.90;;;;;;5097661;28;20039;-63
2023/04/29 02:09:02;;;;;;;18.90;12.15;;;8.90;99.90;;;;;;5114850;28;20138;-62
2023/04/29 02:11:29;;;;;;;18.42;12.93;;;8.90;99.90;;;;;;5113840;28;20135;-63
2023/04/29 02:13:56;;;;;;;17.73;12.43;;;8.90;99.90;;;;;;5113617;28;20043;-62
2023/04/29 02:16:22;;;;;;;18.50;13.02;;;8.90;99.90;;;;;;5113064;28;20574;-63
2023/04/29 02:18:49;;;;;;;20.73;13.38;;;8.90;99.90;;;;;;5095978;28;20281;-61
2023/04/29 02:21:16;;;;;;;19.63;13.57;;;8.90;99.90;;;;;;5114177;28;20132;-62
2023/04/29 02:23:43;;;;;;;19.25;14.05;;;8.90;99.90;;;;;;5112303;28;20050;-63
2023/04/29 02:26:10;;;;;;;22.38;15.27;;;8.80;99.90;;;;;;5113062;28;20059;-62
2023/04/29 02:28:37;;;;;;;20.20;13.40;;;8.70;99.90;;;;;;5092738;28;20532;-63
2023/04/29 02:31:04;;;;;;;22.77;14.10;;;8.60;99.90;;;;;;5111887;28;20049;-63
2023/04/29 02:33:31;;;;;;;20.27;14.15;;;8.60;99.90;;;;;;5113576;28;20129;-63
2023/04/29 02:35:58;;;;;;;21.58;14.13;;;8.60;99.90;;;;;;5094916;28;20048;-63
2023/04/29 02:38:25;;;;;;;22.30;13.70;;;8.70;99.90;;;;;;5112722;28;20040;-64
2023/04/29 02:40:52;;;;;;;16.83;10.05;;;8.70;99.90;;;;;;5112297;28;20053;-63
2023/04/29 02:43:19;;;;;;;16.15;11.30;;;8.50;99.90;;;;;;5093299;28;20043;-63
2023/04/29 02:45:45;;;;;;;17.42;11.88;;;8.50;99.90;;;;;;5110918;28;20040;-62
2023/04/29 02:48:12;;;;;;;18.20;12.00;;;8.30;99.90;;;;;;5110021;28;20521;-63
2023/04/29 02:50:39;;;;;;;17.83;12.00;;;8.30;99.90;;;;;;5111395;28;20131;-62
2023/04/29 02:53:06;;;;;;;17.83;12.10;;;8.30;99.90;;;;;;5093949;28;20448;-62
2023/04/29 02:55:33;;;;;;;20.35;12.38;;;8.30;99.90;;;;;;5112914;28;20050;-61
2023/04/29 02:58:00;;;;;;;20.83;12.30;;;8.20;99.90;;;;;;5094413;28;20087;-63
2023/04/29 03:00:26;;;;;;;21.92;13.75;;;8.20;99.90;;;;;;5094586;28;20498;-62
2023/04/29 03:02:53;;;;;;;18.30;12.80;;;8.30;99.90;;;;;;5093495;28;20514;-63
2023/04/29 03:05:20;;;;;;;19.20;13.35;;;8.30;99.90;;;;;;5108850;28;20421;-63
2023/04/29 03:07:47;;;;;;;22.30;14.48;;;8.30;99.90;;;;;;5090130;28;20067;-63
2023/04/29 03:10:14;;;;;;;18.63;13.52;;;8.30;99.90;;;;;;5080388;28;20070;-63
2023/04/29 03:12:41;;;;;;;21.90;13.63;;;8.30;99.90;;;;;;5110047;28;20059;-64
2023/04/29 03:15:09;;;;;;;25.15;12.77;;;8.20;99.90;;;;;;5109492;28;20062;-63
2023/04/29 03:17:36;;;;;;;18.02;12.38;;;8.20;99.90;;;;;;5090975;28;20050;-63
2023/04/29 03:20:04;;;;;;;22.30;13.70;;;8.10;99.90;;;;;;5099314;28;20461;-63
2023/04/29 03:22:30;;;;;;;21.42;15.13;;;8.00;99.90;;;;;;5089962;28;20205;-62
2023/04/29 03:24:57;;;;;;;19.23;13.43;;;8.10;99.90;;;;;;5109271;28;20051;-62
2023/04/29 03:27:24;;;;;;;21.63;14.63;;;8.10;99.90;;;;;;5090694;28;20302;-62
2023/04/29 03:29:51;;;;;;;23.98;16.25;;;8.00;99.90;;;;;;5109591;28;20079;-63
2023/04/29 03:32:18;;;;;;;23.05;13.80;;;8.00;99.90;;;;;;5091488;28;20043;-63
2023/04/29 03:34:45;;;;;;;23.13;13.77;;;8.00;99.90;;;;;;5108956;28;20696;-61
2023/04/29 03:37:12;;;;;;;21.38;13.68;;;8.00;99.90;;;;;;5091162;28;20062;-62
2023/04/29 03:39:39;;;;;;;27.05;15.05;;;8.00;99.90;;;;;;5109511;28;20130;-62
2023/04/29 03:42:05;;;;;;;18.85;13.32;;;8.00;99.90;;;;;;5109433;28;20581;-62
2023/04/29 03:44:32;;;;;;;21.70;14.82;;;8.00;99.90;;;;;;5073285;28;20105;-63
2023/04/29 03:46:59;;;;;;;23.48;14.95;;;8.00;99.90;;;;;;5076247;28;20055;-63
2023/04/29 03:49:26;;;;;;;20.23;13.73;;;7.90;99.90;;;;;;5097070;28;20043;-62
2023/04/29 03:51:52;;;;;;;23.42;14.45;;;7.90;99.90;;;;;;5101062;28;20044;-61
2023/04/29 03:54:19;;;;;;;19.48;13.10;;;7.80;99.90;;;;;;5087965;28;20123;-62
2023/04/29 03:56:46;;;;;;;22.42;14.95;;;7.70;99.90;;;;;;5108121;28;20050;-62
2023/04/29 03:59:12;;;;;;;22.83;13.00;;;7.70;99.90;;;;;;5107696;28;20545;-62
2023/04/29 04:01:39;;;;;;;21.05;14.30;;;7.70;99.90;;;;;;5092645;28;20046;-62
2023/04/29 04:04:06;;;;;;;21.20;14.18;;;7.70;99.90;;;;;;5108413;28;20324;-62
2023/04/29 04:06:34;;;;;;;23.98;13.95;;;7.70;99.90;;;;;;5110971;28;20118;-62
2023/04/29 04:09:00;;;;;;;19.55;13.05;;;7.70;99.90;;;;;;5112511;28;20043;-63
2023/04/29 04:11:27;;;;;;;19.83;12.98;;;7.70;99.90;;;;;;5112904;28;20046;-61
2023/04/29 04:13:54;;;;;;;18.55;12.80;;;7.70;99.90;;;;;;5111208;28;20131;-61
2023/04/29 04:16:20;;;;;;;19.13;12.15;;;7.70;99.90;;;;;;5092906;28;20485;-62
2023/04/29 04:18:47;;;;;;;16.25;11.15;;;7.70;99.90;;;;;;5111383;28;20112;-62
2023/04/29 04:21:14;;;;;;;19.75;11.88;;;7.60;99.90;;;;;;5111811;28;20050;-63
2023/04/29 04:23:41;;;;;;;15.82;11.30;;;7.60;99.90;;;;;;5111792;28;20061;-62
2023/04/29 04:26:08;;;;;;;20.55;11.98;;;7.60;99.90;;;;;;5111112;28;20089;-62
2023/04/29 04:28:34;;;;;;;16.80;11.55;;;7.60;99.90;;;;;;5092744;28;20488;-62
2023/04/29 04:31:01;;;;;;;16.95;10.38;;;7.50;99.90;;;;;;5111625;28;20056;-61
2023/04/29 04:33:28;;;;;;;16.60;10.57;;;7.50;99.90;;;;;;5111677;28;20083;-61
2023/04/29 04:35:55;;;;;;;17.55;10.80;;;7.50;99.90;;;;;;5111098;28;20567;-61
2023/04/29 04:38:24;;;;;;;23.08;12.18;;;7.50;99.90;;;;;;5076047;28;20039;-65
2023/04/29 04:40:51;;;;;;;17.70;11.05;;;7.40;99.90;;;;;;5092919;28;20039;-61
2023/04/29 04:43:17;;;;;;;19.55;12.25;;;7.40;99.90;;;;;;5093905;28;20039;-61
2023/04/29 04:45:44;;;;;;;16.60;11.30;;;7.50;99.90;;;;;;5073979;28;20423;-63
2023/04/29 04:48:11;;;;;;;18.13;12.20;;;7.40;99.90;;;;;;5105487;28;20493;-62
2023/04/29 04:50:38;;;;;;;24.10;13.70;;;7.40;99.90;;;;;;5112461;28;20043;-63
2023/04/29 04:53:05;;;;;;;20.80;13.38;;;7.40;99.90;;;;;;5113043;28;20082;-61
2023/04/29 04:55:32;;;;;;;21.85;13.45;;;7.40;99.90;;;;;;5112212;28;20298;-62
2023/04/29 04:57:59;;;;;;;21.40;13.23;;;7.40;99.90;;;;;;5112786;28;20097;-63
2023/04/29 05:00:26;;;;;;;24.48;14.40;;;7.40;99.90;;;;;;5112590;28;20134;-62
2023/04/29 05:02:52;;;;;;;20.08;12.65;;;7.40;99.90;;;;;;5112605;28;20057;-64
2023/04/29 05:05:19;;;;;;;22.83;13.32;;;7.40;99.90;;;;;;5077312;28;20516;-62
2023/04/29 05:07:46;;;;;;;19.95;11.80;;;7.30;99.90;;;;;;5065380;28;20078;-62
2023/04/29 05:10:13;;;;;;;25.80;13.32;;;7.30;99.90;;;;;;5094212;28;20067;-62
2023/04/29 05:12:40;;;;;;;27.48;14.07;;;7.30;99.90;;;;;;5112000;28;20126;-61
2023/04/29 05:15:07;;;;;;;24.00;13.65;;;7.40;99.90;;;;;;5111509;28;20222;-62
2023/04/29 05:17:35;;;;;;;21.33;13.55;;;7.40;99.90;;;;;;5111937;28;20044;-62
2023/04/29 05:20:02;;;;;;;26.73;15.32;;;7.40;99.90;;;;;;5112344;28;20051;-62
2023/04/29 05:22:29;;;;;;;24.15;14.77;;;7.50;99.90;;;;;;5094193;28;20044;-63
2023/04/29 05:25:01;;;;;;;23.70;14.85;;;7.50;99.90;;;;;;5112092;28;20039;-62
2023/04/29 05:27:28;;;;;;;24.92;15.05;;;7.50;99.90;;;;;;5078608;28;20126;-63
2023/04/29 05:29:55;;;;;;;24.50;15.77;;;7.60;99.90;;;;;;5109190;28;20051;-62
2023/04/29 05:32:22;;;;;;;32.53;17.55;;;7.60;99.90;;;;;;5093546;28;20073;-62
2023/04/29 05:34:49;;;;;;;23.10;13.35;;;7.70;99.90;;;;;;5093870;28;20506;-62
2023/04/29 05:37:17;;;;;;;22.40;14.63;;;7.70;99.90;;;;;;5110389;28;20070;-63
2023/04/29 05:39:44;;;;;;;23.98;14.43;;;7.70;99.90;;;;;;5111852;28;20043;-62
2023/04/29 05:42:11;;;;;;;20.63;13.80;;;7.80;99.90;;;;;;5111504;28;20040;-62
2023/04/29 05:44:38;;;;;;;22.08;14.95;;;7.90;99.90;;;;;;5111862;28;20048;-63
2023/04/29 05:47:05;;;;;;;21.90;14.93;;;8.00;99.90;;;;;;5092293;28;20074;-63
2023/04/29 05:49:32;;;;;;;30.42;15.20;;;8.10;99.90;;;;;;5093720;28;20043;-62
2023/04/29 05:52:02;;;;;;;29.20;15.50;;;8.20;99.90;;;;;;5093197;28;20083;-62
2023/04/29 05:54:29;;;;;;;23.90;15.10;;;8.40;99.90;;;;;;5093900;28;20578;-63
2023/04/29 05:56:56;;;;;;;25.92;15.88;;;8.50;99.90;;;;;;5111094;28;20135;-62
2023/04/29 05:59:23;;;;;;;24.60;15.63;;;8.60;99.90;;;;;;5111367;28;20482;-63
2023/04/29 06:01:50;;;;;;;25.40;15.18;;;8.60;99.90;;;;;;5105046;28;20048;-63
2023/04/29 06:04:16;;;;;;;26.35;15.23;;;8.80;99.90;;;;;;5076319;28;20573;-62
2023/04/29 06:06:43;;;;;;;21.73;14.98;;;8.90;99.90;;;;;;5090696;28;20047;-62
2023/04/29 06:09:10;;;;;;;23.85;15.65;;;8.90;99.90;;;;;;5076364;28;20043;-63
2023/04/29 06:11:53;;;;;;;29.55;16.95;;;9.00;99.90;;;;;;5111186;28;20101;-63
2023/04/29 06:14:19;;;;;;;23.55;16.17;;;9.10;99.90;;;;;;5093034;28;20452;-64
2023/04/29 06:16:47;;;;;;;25.52;16.08;;;9.20;99.90;;;;;;5110555;28;20143;-63
2023/04/29 06:19:14;;;;;;;28.10;16.00;;;9.30;99.90;;;;;;5076440;28;20506;-62
2023/04/29 06:21:41;;;;;;;27.50;15.23;;;9.30;99.90;;;;;;5111151;28;20100;-64
2023/04/29 06:24:08;;;;;;;29.10;19.90;;;9.40;99.90;;;;;;5110555;28;20052;-64
2023/04/29 06:26:35;;;;;;;24.85;16.27;;;9.40;99.90;;;;;;5111111;28;20129;-63
2023/04/29 06:29:02;;;;;;;24.98;15.88;;;9.50;99.90;;;;;;5075141;28;20075;-63
2023/04/29 06:31:28;;;;;;;24.83;14.50;;;9.60;99.90;;;;;;5093087;28;20131;-64
2023/04/29 06:33:55;;;;;;;24.42;14.50;;;9.70;99.90;;;;;;5114376;28;20457;-62
2023/04/29 06:36:22;;;;;;;23.25;13.20;;;9.60;99.90;;;;;;4742434;28;10000363;-63
2023/04/29 06:38:49;;;;;;;21.95;14.00;;;9.80;99.90;;;;;;5090606;28;20051;-63
2023/04/29 06:41:15;;;;;;;21.27;13.75;;;9.80;99.90;;;;;;5103764;28;20071;-63
2023/04/29 06:43:42;;;;;;;24.67;13.52;;;9.80;99.90;;;;;;5106976;28;20496;-62
2023/04/29 06:46:09;;;;;;;29.17;15.20;;;9.90;99.90;;;;;;5101784;28;20052;-62
2023/04/29 06:48:36;;;;;;;22.98;15.38;;;9.90;99.90;;;;;;5097671;28;20117;-63
2023/04/29 06:51:03;;;;;;;21.73;13.70;;;9.90;99.90;;;;;;5100713;28;20048;-63
2023/04/29 06:53:30;;;;;;;26.65;14.35;;;10.00;99.90;;;;;;5078096;28;20548;-63
2023/04/29 06:55:56;;;;;;;23.13;14.25;;;10.00;99.90;;;;;;5082040;28;20040;-63
2023/04/29 06:58:23;;;;;;;23.55;13.93;;;10.10;99.90;;;;;;5101039;28;20138;-61
2023/04/29 07:00:50;;;;;;;24.02;13.25;;;10.20;99.90;;;;;;5105257;28;20050;-62
2023/04/29 07:03:17;;;;;;;23.70;12.98;;;10.30;99.90;;;;;;5106691;28;20464;-64
2023/04/29 07:05:44;;;;;;;22.73;13.88;;;10.30;99.90;;;;;;5076950;28;20524;-64
2023/04/29 07:08:12;;;;;;;16.80;10.48;;;10.40;99.90;;;;;;5110864;28;20575;-66
2023/04/29 07:10:40;;;;;;;21.75;13.18;;;10.50;99.90;;;;;;5109675;28;20059;-64
2023/04/29 07:13:06;;;;;;;18.77;11.98;;;10.60;99.90;;;;;;5108799;28;20126;-63
2023/04/29 07:15:34;;;;;;;20.15;11.73;;;10.60;99.90;;;;;;5091693;28;20126;-64
2023/04/29 07:18:03;;;;;;;21.38;12.02;;;10.80;99.90;;;;;;5109009;28;20573;-62
2023/04/29 07:20:30;;;;;;;17.30;11.43;;;10.90;99.90;;;;;;5108758;28;20040;-63
2023/04/29 07:22:57;;;;;;;18.77;11.85;;;10.90;99.90;;;;;;5107144;28;20422;-65
2023/04/29 07:25:25;;;;;;;19.40;11.45;;;11.10;99.90;;;;;;5088252;28;20130;-63
2023/04/29 07:27:52;;;;;;;19.00;10.88;;;11.20;99.90;;;;;;5105951;28;20130;-63
2023/04/29 07:30:19;;;;;;;19.63;10.80;;;11.20;99.90;;;;;;5087883;28;20052;-63
2023/04/29 07:32:45;;;;;;;16.17;10.20;;;11.20;99.90;;;;;;5088177;28;20050;-64
2023/04/29 07:35:12;;;;;;;21.08;10.98;;;11.30;99.90;;;;;;5087112;28;20139;-64
2023/04/29 07:37:40;;;;;;;22.25;10.65;;;11.30;99.90;;;;;;5105801;28;20054;-64
2023/04/29 07:40:09;;;;;;;20.25;10.18;;;11.30;99.90;;;;;;5106371;28;20048;-63
2023/04/29 07:42:36;;;;;;;16.27;10.20;;;11.30;99.90;;;;;;5095490;28;20126;-64
2023/04/29 07:45:04;;;;;;;15.13;9.25;;;11.30;99.90;;;;;;5103765;28;20504;-64
2023/04/29 07:47:31;;;;;;;12.82;8.90;;;11.30;99.90;;;;;;5087245;28;20142;-64
2023/04/29 07:49:58;;;;;;;14.60;8.93;;;11.30;99.90;;;;;;5087487;28;20051;-63
2023/04/29 07:52:24;;;;;;;15.65;9.18;;;11.30;99.90;;;;;;5097458;28;20043;-64
2023/04/29 07:54:52;;;;;;;16.27;9.68;;;11.30;99.90;;;;;;5106382;28;20061;-62
2023/04/29 07:57:19;;;;;;;18.20;9.25;;;11.40;99.90;;;;;;5105694;28;20055;-63
2023/04/29 07:59:45;;;;;;;15.95;9.88;;;11.40;99.90;;;;;;5087413;28;20130;-63
2023/04/29 08:02:12;;;;;;;17.02;8.25;;;11.40;99.90;;;;;;5070306;28;20131;-62
2023/04/29 08:04:41;;;;;;;16.17;9.23;;;11.50;99.90;;;;;;5105792;28;20105;-61
2023/04/29 08:07:08;;;;;;;15.82;8.65;;;11.60;99.90;;;;;;5105357;28;20061;-63
2023/04/29 08:09:35;;;;;;;11.05;7.18;;;11.70;99.90;;;;;;5105020;28;20054;-62
2023/04/29 08:12:01;;;;;;;14.25;8.75;;;11.60;99.90;;;;;;5087169;28;20053;-63
2023/04/29 08:14:28;;;;;;;16.55;8.75;;;11.70;99.90;;;;;;5080953;28;20237;-63
2023/04/29 08:16:55;;;;;;;16.50;9.32;;;11.70;99.90;;;;;;5099759;28;20047;-63
2023/04/29 08:19:22;;;;;;;12.60;7.78;;;11.90;99.90;;;;;;5078295;28;20106;-62
2023/04/29 08:21:49;;;;;;;14.38;7.85;;;12.00;99.90;;;;;;5083655;28;20062;-63
2023/04/29 08:24:15;;;;;;;16.55;8.07;;;12.00;99.90;;;;;;5082071;28;20075;-63
2023/04/29 08:26:42;;;;;;;13.70;8.23;;;12.10;99.90;;;;;;5083420;28;20113;-63
2023/04/29 08:29:09;;;;;;;14.45;8.20;;;12.10;99.90;;;;;;5082327;28;20123;-63
2023/04/29 08:31:36;;;;;;;10.98;7.03;;;12.10;99.90;;;;;;5083090;28;20044;-64
2023/04/29 08:34:03;;;;;;;14.68;8.02;;;12.20;99.90;;;;;;5078686;28;20048;-64
2023/04/29 08:36:30;;;;;;;16.88;7.85;;;12.20;99.90;;;;;;5075791;28;20056;-62
2023/04/29 08:38:57;;;;;;;16.83;7.80;;;12.20;99.90;;;;;;5079784;28;20052;-63
2023/04/29 08:41:24;;;;;;;14.90;8.10;;;12.20;99.90;;;;;;5084547;28;20063;-63
2023/04/29 08:43:51;;;;;;;14.20;7.35;;;12.20;99.90;;;;;;5080745;28;20052;-64
2023/04/29 08:46:17;;;;;;;10.07;6.57;;;12.30;99.90;;;;;;5076036;28;20054;-63
2023/04/29 08:48:44;;;;;;;16.63;7.25;;;12.40;99.90;;;;;;5086946;28;20063;-63
2023/04/29 08:51:14;;;;;;;13.48;7.18;;;12.50;99.90;;;;;;5087199;28;20055;-62
2023/04/29 08:53:41;;;;;;;14.93;7.47;;;12.60;99.90;;;;;;5087063;28;20134;-64
2023/04/29 08:56:11;;;;;;;9.60;6.43;;;12.60;99.90;;;;;;5087258;28;20127;-63
2023/04/29 08:58:38;;;;;;;11.07;6.82;;;12.70;99.90;;;;;;5087162;28;20144;-63
2023/04/29 09:01:09;;;;;;;12.35;7.15;;;12.80;99.90;;;;;;5070346;28;20123;-64
2023/04/29 09:03:48;;;;;;;9.45;5.68;;;12.70;99.90;;;;;;5087977;28;20080;-61
2023/04/29 09:06:15;;;;;;;14.80;9.10;;;12.70;99.90;;;;;;5087500;28;20083;-62
2023/04/29 09:08:42;;;;;;;10.10;6.53;;;12.70;99.90;;;;;;5080865;28;20044;-63
2023/04/29 09:11:10;;;;;;;16.13;6.85;;;12.90;99.90;;;;;;5064742;28;20052;-62
2023/04/29 09:13:37;;;;;;;10.40;6.70;;;13.00;99.90;;;;;;5078773;28;20044;-62
2023/04/29 09:16:04;;;;;;;10.73;7.13;;;13.10;99.90;;;;;;5083048;28;20079;-64
2023/04/29 09:18:45;;;;;;;15.38;7.88;;;13.20;99.90;;;;;;5078837;28;20060;-62
2023/04/29 09:21:18;;;;;;;14.43;7.18;;;13.30;99.90;;;;;;5076107;28;20352;-62
2023/04/29 09:23:57;;;;;;;10.90;7.05;;;13.40;99.90;;;;;;5078324;28;20131;-63
2023/04/29 09:26:24;;;;;;;10.05;7.38;;;13.40;99.90;;;;;;5064859;28;20054;-64
2023/04/29 09:29:08;;;;;;;13.80;7.50;;;13.40;99.90;;;;;;5062458;28;20052;-63
2023/04/29 09:31:37;;;;;;;14.75;7.90;;;13.50;99.90;;;;;;5081411;28;20048;-63
2023/04/29 09:34:03;;;;;;;12.80;6.72;;;13.50;99.90;;;;;;5086721;28;20044;-62
2023/04/29 09:36:49;;;;;;;11.23;6.60;;;13.60;99.90;;;;;;5087064;28;20058;-62
2023/04/29 09:39:21;;;;;;;11.40;6.60;;;13.60;99.90;;;;;;5083085;28;20472;-62
2023/04/29 09:41:53;;;;;;;18.58;6.93;;;13.70;99.90;;;;;;5081056;28;20579;-63
2023/04/29 09:44:30;;;;;;;14.13;6.77;;;13.90;99.90;;;;;;5083344;28;20036;-63
2023/04/29 09:47:09;;;;;;;14.23;6.97;;;14.20;99.90;;;;;;5079459;28;20288;-63
2023/04/29 09:49:39;;;;;;;9.98;6.45;;;14.70;99.90;;;;;;5081959;28;20052;-63
2023/04/29 09:52:10;;;;;;;21.00;6.70;;;15.10;99.90;;;;;;5079639;28;20077;-64
2023/04/29 09:54:38;;;;;;;12.43;6.95;;;15.50;99.90;;;;;;5080642;28;20048;-65
2023/04/29 09:57:06;;;;;;;10.43;6.38;;;15.80;99.90;;;;;;5078610;28;20048;-63
2023/04/29 09:59:37;;;;;;;9.48;5.82;;;15.90;99.90;;;;;;5045379;28;20051;-63
2023/04/29 10:02:19;;;;;;;7.85;5.00;;;16.30;99.90;;;;;;5078023;28;20215;-63
2023/04/29 10:04:58;;;;;;;11.52;5.35;;;16.50;99.90;;;;;;5092886;28;20132;-64
2023/04/29 10:07:25;;;;;;;10.15;5.32;;;16.80;99.90;;;;;;5069882;28;20067;-63
2023/04/29 10:09:52;;;;;;;10.02;5.65;;;16.80;99.90;;;;;;5071890;28;20139;-63
2023/04/29 10:12:19;;;;;;;11.52;5.82;;;16.70;99.90;;;;;;5075640;28;20400;-63
2023/04/29 10:14:57;;;;;;;7.70;5.15;;;16.80;99.90;;;;;;5083465;28;20131;-62
2023/04/29 10:17:31;;;;;;;7.40;4.93;;;17.00;99.90;;;;;;5086855;28;20129;-62
2023/04/29 10:20:04;;;;;;;8.25;5.68;;;17.40;99.90;;;;;;5106944;28;20075;-63
2023/04/29 10:22:31;;;;;;;;;;;17.70;99.90;;;;;;5110327;28;20055;-63
2023/04/29 10:24:58;;;;;;;9.50;5.93;;;17.70;99.90;;;;;;5104208;28;19926;-63
2023/04/29 10:27:25;;;;;;;11.05;5.95;;;17.90;99.90;;;;;;5106477;28;20047;-63
2023/04/29 10:29:52;;;;;;;12.45;6.55;;;18.00;99.90;;;;;;5098659;28;20167;-64
2023/04/29 10:32:18;;;;;;;10.77;6.70;;;17.80;99.90;;;;;;5068491;28;20048;-63
2023/04/29 10:34:45;;;;;;;9.48;5.70;;;17.20;99.90;;;;;;5101448;28;20126;-63
2023/04/29 10:37:12;;;;;;;8.07;5.40;;;16.70;99.90;;;;;;5081974;28;20072;-63
2023/04/29 10:39:41;;;;;;;8.52;5.00;;;16.50;99.90;;;;;;5085605;28;20082;-63
2023/04/29 10:42:34;;;;;;;7.65;4.78;;;16.50;99.90;;;;;;5101207;28;20066;-62
2023/04/29 10:45:31;;;;;;;10.38;5.82;;;16.60;99.90;;;;;;5066609;28;20047;-63
2023/04/29 10:48:05;;;;;;;8.32;5.60;;;16.30;99.90;;;;;;5078037;28;20059;-63
2023/04/29 10:50:32;;;;;;;9.52;5.15;;;16.20;99.90;;;;;;5098678;28;20351;-63
2023/04/29 10:53:03;;;;;;;9.63;5.43;;;16.40;99.90;;;;;;5079244;28;20275;-64
2023/04/29 10:55:30;;;;;;;10.60;5.47;;;16.30;99.90;;;;;;5071522;28;20431;-63
2023/04/29 10:57:57;;;;;;;7.97;4.85;;;16.30;99.90;;;;;;5096717;28;20047;-61
2023/04/29 11:00:28;;;;;;;7.10;5.35;;;16.30;99.90;;;;;;5101519;28;20109;-62
2023/04/29 11:02:58;;;;;;;14.10;6.53;;;16.40;99.90;;;;;;5098133;28;20134;-63
2023/04/29 11:05:32;;;;;;;10.43;5.30;;;16.30;99.90;;;;;;5105634;28;20040;-63
2023/04/29 11:08:22;;;;;;;10.70;6.25;;;16.30;99.90;;;;;;5100905;28;20059;-62
2023/04/29 11:10:52;;;;;;;8.68;5.40;;;16.20;99.90;;;;;;5102725;28;20054;-63
2023/04/29 11:13:26;;;;;;;9.68;5.88;;;16.00;99.90;;;;;;5102037;28;20059;-63
2023/04/29 11:16:07;;;;;;;12.20;5.30;;;15.80;99.90;;;;;;5084372;28;20047;-63
2023/04/29 11:18:35;;;;;;;13.52;4.78;;;15.80;99.90;;;;;;5088303;28;20518;-63
2023/04/29 11:21:05;;;;;;;17.52;6.28;;;15.80;99.90;;;;;;5077286;28;20354;-63
2023/04/29 11:23:40;;;;;;;7.22;4.68;;;15.90;99.90;;;;;;5096116;28;20522;-63
2023/04/29 11:26:06;;;;;;;26.73;5.72;;;16.00;99.90;;;;;;5106953;28;20411;-63
2023/04/29 11:28:34;;;;;;;11.32;5.07;;;16.10;99.90;;;;;;5106653;28;20162;-64
2023/04/29 11:31:02;;;;;;;7.70;4.55;;;16.10;99.90;;;;;;5106967;28;20047;-63
2023/04/29 11:33:31;;;;;;;19.15;5.80;;;16.00;99.90;;;;;;5070950;28;20048;-63
2023/04/29 11:35:58;;;;;;;9.70;4.47;;;16.00;99.90;;;;;;5106883;28;20461;-63
2023/04/29 11:38:29;;;;;;;13.57;4.95;;;16.20;99.90;;;;;;5106583;28;20118;-63
2023/04/29 11:40:56;;;;;;;7.78;4.97;;;16.30;99.90;;;;;;5106115;28;20048;-64
2023/04/29 11:43:23;;;;;;;14.35;6.00;;;16.20;99.90;;;;;;5066693;28;20067;-63
2023/04/29 11:45:51;;;;;;;8.10;4.60;;;16.20;99.90;;;;;;5086392;28;20422;-63
2023/04/29 11:48:21;;;;;;;6.80;4.32;;;16.30;99.90;;;;;;5105111;28;20043;-64
2023/04/29 11:50:49;;;;;;;8.15;5.38;;;16.40;99.90;;;;;;5080031;28;20055;-61
2023/04/29 11:53:19;;;;;;;11.32;5.18;;;16.30;99.90;;;;;;5068515;28;20044;-62
2023/04/29 11:55:46;;;;;;;8.27;5.65;;;16.40;99.90;;;;;;5095938;28;20487;-63
2023/04/29 11:58:16;;;;;;;8.40;5.50;;;16.40;99.90;;;;;;5098134;28;20040;-62
2023/04/29 12:00:46;;;;;;;13.27;5.85;;;16.50;99.90;;;;;;5100880;28;20051;-61
2023/04/29 12:03:17;;;;;;;8.25;5.45;;;16.60;99.90;;;;;;5075652;28;20482;-61
2023/04/29 12:05:53;;;;;;;10.48;5.80;;;16.40;99.90;;;;;;5098224;28;20158;-62
2023/04/29 12:08:27;;;;;;;9.55;5.38;;;16.30;99.90;;;;;;5077957;28;20193;-62
2023/04/29 12:10:55;;;;;;;9.80;4.70;;;16.30;99.90;;;;;;5079210;28;20526;-63
2023/04/29 12:13:23;;;;;;;7.47;4.32;;;16.50;99.90;;;;;;5075593;28;20044;-63
2023/04/29 12:15:50;;;;;;;11.27;4.20;;;16.60;99.90;;;;;;5066328;28;20506;-62
2023/04/29 12:18:17;;;;;;;8.25;4.60;;;16.80;99.90;;;;;;5086398;28;20510;-64
2023/04/29 12:20:45;;;;;;;12.07;4.53;;;16.90;99.90;;;;;;5086505;28;20052;-62
2023/04/29 12:23:21;;;;;;;12.18;4.82;;;17.00;99.90;;;;;;5085404;28;20094;-62
2023/04/29 12:25:55;;;;;;;8.25;4.35;;;17.00;99.90;;;;;;5101811;28;20138;-63
2023/04/29 12:28:22;;;;;;;10.45;6.25;;;17.00;99.90;;;;;;5105284;28;20079;-64
2023/04/29 12:30:53;;;;;;;5.18;3.58;;;17.10;99.90;;;;;;5107112;28;20047;-60
2023/04/29 12:33:24;;;;;;;9.77;4.28;;;17.20;99.90;;;;;;5090281;28;20134;-62
2023/04/29 12:35:51;;;;;;;6.57;3.67;;;17.40;99.90;;;;;;5090236;28;20054;-62
2023/04/29 12:38:31;;;;;;;6.25;3.90;;;17.40;99.90;;;;;;5109193;28;20047;-63
2023/04/29 12:41:00;;;;;;;14.25;6.05;;;17.50;99.90;;;;;;5108016;28;20044;-62
2023/04/29 12:43:27;;;;;;;16.17;5.45;;;17.50;99.90;;;;;;5097400;28;20410;-63